Terminal Aerodrome Forecast
Issued by NWS

Current Version | Previous Version | Text Only | Print | Product List | Glossary On
Versions: 1 2 3 4 5 6 7 8 9 10 11 12 13
000
FTUS45 KGJT 270118 AAA
TAFRIL
TAF AMD
KRIL 270118Z 2701/2724 19012G20KT P6SM VCTS SCT080CB BKN150
      TEMPO 2701/2702 VRB20G40KT -TSRA
     FM270700 15005KT P6SM FEW250
     FM271300 18005KT P6SM SKC
     FM271500 23005KT P6SM SKC
     FM271800 26007KT P6SM FEW250=

USA.gov is the U.S. government's official web portal to all federal, state and local government web resources and services.